createdAt,value
2019-01-10T00:02:39.008Z,99190.70
2019-01-10T00:06:43.289Z,99199.84
2019-01-10T00:10:47.704Z,99190.80
2019-01-10T00:14:53.174Z,99193.81
2019-01-10T00:18:57.479Z,99192.09
2019-01-10T00:23:02.223Z,99195.60
2019-01-10T00:27:06.507Z,99199.92
2019-01-10T00:31:10.953Z,99194.30
2019-01-10T00:35:15.259Z,99205.16
2019-01-10T00:39:19.549Z,99209.92
2019-01-10T00:43:23.830Z,99213.77
2019-01-10T00:47:28.090Z,99222.33
2019-01-10T00:51:32.373Z,99227.48
2019-01-10T00:55:36.670Z,99235.31
2019-01-10T00:59:40.946Z,99241.23
2019-01-10T01:03:45.230Z,99244.22
2019-01-10T01:07:51.325Z,99245.47
2019-01-10T01:11:55.642Z,99249.02
2019-01-10T01:16:01.623Z,99254.70
2019-01-10T01:20:06.927Z,99259.89
2019-01-10T01:24:14.146Z,99265.95
2019-01-10T01:28:18.654Z,99267.77
2019-01-10T01:32:22.957Z,99274.64
2019-01-10T01:36:27.340Z,99269.80
2019-01-10T01:40:31.836Z,99275.89
2019-01-10T01:44:36.303Z,99278.44
2019-01-10T01:48:40.963Z,99282.24
2019-01-10T01:52:45.775Z,99287.91
2019-01-10T01:56:50.264Z,99299.12
2019-01-10T02:00:54.623Z,99301.62
2019-01-10T02:04:59.162Z,99305.17
2019-01-10T02:09:04.397Z,99308.68
2019-01-10T02:13:16.543Z,99308.11
2019-01-10T02:17:15.920Z,99320.27
2019-01-10T02:21:20.369Z,99329.35
2019-01-10T02:25:25.016Z,99329.69
2019-01-10T02:29:29.334Z,99333.91
2019-01-10T02:33:33.639Z,99335.20
2019-01-10T02:37:38.206Z,99336.55
2019-01-10T02:41:42.539Z,99342.14
2019-01-10T02:45:46.911Z,99348.58
2019-01-10T02:49:51.276Z,99341.22
2019-01-10T02:53:55.558Z,99342.14
2019-01-10T02:57:59.960Z,99348.18
2019-01-10T03:02:04.734Z,99341.16
2019-01-10T03:06:09.124Z,99353.27
2019-01-10T03:10:14.672Z,99349.28
2019-01-10T03:14:18.939Z,99352.25
2019-01-10T03:18:23.269Z,99347.54
2019-01-10T03:22:27.637Z,99353.07
2019-01-10T03:26:32.088Z,99356.89
2019-01-10T03:30:36.353Z,99362.03
2019-01-10T03:34:40.647Z,99359.44
2019-01-10T03:38:44.967Z,99358.05
2019-01-10T03:42:49.329Z,99363.13
2019-01-10T03:46:53.655Z,99363.93
2019-01-10T03:50:58.008Z,99369.99
2019-01-10T03:55:02.323Z,99370.80
2019-01-10T03:59:06.661Z,99369.83
2019-01-10T04:03:10.992Z,99380.14
2019-01-10T04:07:15.328Z,99377.44
2019-01-10T04:11:19.656Z,99379.01
2019-01-10T04:15:24.096Z,99388.46
2019-01-10T04:19:28.630Z,99389.70
2019-01-10T04:23:32.963Z,99395.66
2019-01-10T04:27:37.359Z,99406.45
2019-01-10T04:31:41.889Z,99409.87
2019-01-10T04:35:46.201Z,99412.89
2019-01-10T04:39:50.835Z,99417.26
2019-01-10T04:43:55.225Z,99421.52
2019-01-10T04:47:59.607Z,99429.33
2019-01-10T04:52:03.886Z,99429.75
2019-01-10T04:56:08.253Z,99431.91
2019-01-10T05:00:18.661Z,99438.06
2019-01-10T05:04:23.887Z,99436.82
2019-01-10T05:08:28.252Z,99436.90
2019-01-10T05:12:32.530Z,99442.09
2019-01-10T05:16:36.948Z,99445.61
2019-01-10T05:20:41.297Z,99459.11
2019-01-10T05:24:46.764Z,99462.64
2019-01-10T05:28:51.185Z,99475.19
2019-01-10T05:32:55.789Z,99482.15
2019-01-10T05:37:00.183Z,99486.52
2019-01-10T05:41:04.507Z,99495.17
2019-01-10T05:45:10.721Z,99491.71
2019-01-10T05:49:15.524Z,99497.41
2019-01-10T05:53:20.044Z,99499.52
2019-01-10T05:57:24.563Z,99508.47
2019-01-10T06:01:29.082Z,99511.51
2019-01-10T06:05:33.453Z,99515.40
2019-01-10T06:09:37.847Z,99525.22
2019-01-10T06:13:42.193Z,99526.03
2019-01-10T06:17:46.797Z,99532.06
2019-01-10T06:21:51.177Z,99537.63
2019-01-10T06:25:55.697Z,99545.41
2019-01-10T06:30:01.199Z,99560.13
2019-01-10T06:34:06.549Z,99564.75
2019-01-10T06:38:11.042Z,99564.64
2019-01-10T06:42:15.459Z,99576.42
2019-01-10T06:46:19.777Z,99578.09
2019-01-10T06:50:24.242Z,99587.98
2019-01-10T06:54:28.650Z,99589.70
2019-01-10T06:58:33.002Z,99600.89
2019-01-10T07:02:37.408Z,99612.73
2019-01-10T07:06:42.819Z,99615.70
2019-01-10T07:10:47.971Z,99629.03
2019-01-10T07:14:53.612Z,99640.64
2019-01-10T07:18:59.102Z,99642.00
2019-01-10T07:23:04.705Z,99651.89
2019-01-10T07:27:09.199Z,99656.59
2019-01-10T07:31:29.569Z,99658.80
2019-01-10T07:35:34.143Z,99666.28
2019-01-10T07:39:39.739Z,99674.52
2019-01-10T07:43:43.940Z,99674.22
2019-01-10T07:47:48.852Z,99678.08
2019-01-10T07:51:53.190Z,99678.29
2019-01-10T07:55:57.432Z,99688.00
2019-01-10T08:00:01.714Z,99695.84
2019-01-10T08:04:05.962Z,99710.72
2019-01-10T08:08:10.290Z,99709.75
2019-01-10T08:12:15.089Z,99719.31
2019-01-10T08:16:19.298Z,99724.45
2019-01-10T08:20:23.578Z,99726.68
2019-01-10T08:24:27.943Z,99735.02
2019-01-10T08:28:32.229Z,99738.66
2019-01-10T08:32:42.681Z,99736.44
2019-01-10T08:36:47.332Z,99745.16
2019-01-10T08:40:53.438Z,99751.64
2019-01-10T08:44:59.726Z,99758.70
2019-01-10T08:49:07.925Z,99762.53
2019-01-10T08:53:12.592Z,99770.87
2019-01-10T08:57:17.324Z,99778.30
2019-01-10T09:01:21.553Z,99784.78
2019-01-10T09:05:25.921Z,99783.94
2019-01-10T09:09:30.232Z,99783.99
2019-01-10T09:13:34.575Z,99787.02
2019-01-10T09:17:38.956Z,99788.89
2019-01-10T09:21:43.450Z,99788.08
2019-01-10T09:25:47.945Z,99789.06
2019-01-10T09:29:52.195Z,99792.09
2019-01-10T09:33:56.845Z,99795.50
2019-01-10T09:38:01.107Z,99797.73
2019-01-10T09:42:07.429Z,99798.73
2019-01-10T09:46:12.070Z,99799.27
2019-01-10T09:50:18.854Z,99796.02
2019-01-10T09:54:23.219Z,99793.23
2019-01-10T09:58:28.742Z,99798.94
2019-01-10T10:02:33.083Z,99805.03
2019-01-10T10:06:37.967Z,99808.51
2019-01-10T10:10:42.309Z,99800.66
2019-01-10T10:14:46.623Z,99808.57
2019-01-10T10:18:58.848Z,99807.02
2019-01-10T10:23:03.187Z,99806.36
2019-01-10T10:27:07.543Z,99811.73
2019-01-10T10:31:13.665Z,99815.63
2019-01-10T10:35:18.385Z,99810.61
2019-01-10T10:39:24.343Z,99810.30
2019-01-10T10:43:28.691Z,99817.72
2019-01-10T10:47:34.986Z,99817.24
2019-01-10T10:51:39.866Z,99803.55
2019-01-10T10:55:44.160Z,99810.55
2019-01-10T10:59:48.464Z,99814.20
2019-01-10T11:03:52.778Z,99822.17
2019-01-10T11:07:57.104Z,99819.03
2019-01-10T11:12:01.518Z,99820.02
2019-01-10T11:16:10.692Z,99823.80
2019-01-10T11:20:15.468Z,99825.95
2019-01-10T11:24:19.757Z,99818.86
2019-01-10T11:28:24.203Z,99816.23
2019-01-10T11:32:28.841Z,99820.16
2019-01-10T11:36:34.022Z,99810.61
2019-01-10T11:40:38.445Z,99818.86
2019-01-10T11:44:45.711Z,99818.66
2019-01-10T11:48:50.150Z,99822.08
2019-01-10T11:52:54.761Z,99818.66
2019-01-10T11:56:59.064Z,99817.87
2019-01-10T12:01:06.695Z,99825.34
2019-01-10T12:05:30.421Z,99826.58
2019-01-10T12:09:36.915Z,99820.63
2019-01-10T12:13:41.264Z,99822.32
2019-01-10T12:17:45.769Z,99826.52
2019-01-10T12:21:52.353Z,99821.02
2019-01-10T12:26:15.752Z,99821.75
2019-01-10T12:30:22.347Z,99822.32
2019-01-10T12:34:26.720Z,99822.19
2019-01-10T12:38:31.003Z,99826.96
2019-01-10T12:42:35.326Z,99826.52
2019-01-10T12:46:39.733Z,99826.09
2019-01-10T12:50:44.026Z,99839.88
2019-01-10T12:54:48.280Z,99836.79
2019-01-10T12:58:52.499Z,99838.09
2019-01-10T13:02:56.891Z,99841.80
2019-01-10T13:07:01.109Z,99838.76
2019-01-10T13:11:05.278Z,99849.84
2019-01-10T13:15:11.754Z,99851.51
2019-01-10T13:19:15.949Z,99850.21
2019-01-10T13:23:20.126Z,99861.53
2019-01-10T13:27:24.392Z,99862.75
2019-01-10T13:31:28.522Z,99862.83
2019-01-10T13:35:32.699Z,99871.59
2019-01-10T13:39:36.931Z,99883.59
2019-01-10T13:43:41.088Z,99879.15
2019-01-10T13:47:47.972Z,99890.02
2019-01-10T13:51:52.051Z,99892.86
2019-01-10T13:55:56.237Z,99898.75
2019-01-10T14:00:00.434Z,99896.63
2019-01-10T14:04:04.623Z,99902.19
2019-01-10T14:08:08.806Z,99912.58
2019-01-10T14:12:12.949Z,99910.92
2019-01-10T14:16:17.132Z,99919.65
2019-01-10T14:20:21.319Z,99919.65
2019-01-10T14:24:25.487Z,99922.61
2019-01-10T14:28:29.964Z,99923.78
2019-01-10T14:32:34.082Z,99939.30
2019-01-10T14:36:38.589Z,99932.87
2019-01-10T14:40:42.767Z,99933.11
2019-01-10T14:44:46.961Z,99940.67
2019-01-10T14:48:51.177Z,99945.25
2019-01-10T14:52:55.309Z,99945.97
2019-01-10T14:56:59.502Z,99961.06
2019-01-10T15:01:03.665Z,99962.36
2019-01-10T15:05:08.075Z,99961.42
2019-01-10T15:09:12.271Z,99977.36
2019-01-10T15:13:16.541Z,99974.62
2019-01-10T15:17:20.698Z,99976.70
2019-01-10T15:21:24.855Z,99978.39
2019-01-10T15:25:29.067Z,99985.86
2019-01-10T15:29:33.270Z,99980.98
2019-01-10T15:33:37.406Z,99989.33
2019-01-10T15:37:45.059Z,99988.91
2019-01-10T15:41:49.303Z,99989.11
2019-01-10T15:45:53.483Z,99990.53
2019-01-10T15:49:57.717Z,99984.14
2019-01-10T15:54:03.936Z,99992.35
2019-01-10T15:58:08.157Z,99997.48
2019-01-10T16:02:12.906Z,99995.80
2019-01-10T16:06:17.076Z,100003.58
2019-01-10T16:10:21.521Z,100005.23
2019-01-10T16:14:25.733Z,100008.65
2019-01-10T16:18:29.905Z,100013.71
2019-01-10T16:22:34.103Z,100019.69
2019-01-10T16:26:38.617Z,100021.86
2019-01-10T16:30:42.764Z,100017.51
2019-01-10T16:34:46.954Z,100016.80
2019-01-10T16:38:51.161Z,100021.18
2019-01-10T16:42:55.340Z,100019.95
2019-01-10T16:46:59.655Z,100015.27
2019-01-10T16:51:03.837Z,100022.70
2019-01-10T16:55:08.804Z,100011.05
2019-01-10T16:59:13.019Z,100019.88
2019-01-10T17:03:17.156Z,100029.33
2019-01-10T17:07:21.344Z,100037.13
2019-01-10T17:11:25.525Z,100035.27
2019-01-10T17:15:29.981Z,100044.33
2019-01-10T17:19:34.126Z,100053.42
2019-01-10T17:23:38.467Z,100063.45
2019-01-10T17:27:42.696Z,100061.59
2019-01-10T17:31:46.918Z,100069.81
2019-01-10T17:35:51.103Z,100075.95
2019-01-10T17:39:55.344Z,100079.25
2019-01-10T17:43:59.819Z,100086.91
2019-01-10T17:48:04.276Z,100087.62
2019-01-10T17:52:08.817Z,100090.61
2019-01-10T17:56:12.965Z,100099.17
2019-01-10T18:00:19.708Z,100105.66
2019-01-10T18:04:23.851Z,100102.99
2019-01-10T18:08:28.030Z,100117.70
2019-01-10T18:12:32.194Z,100127.13
2019-01-10T18:16:36.361Z,100130.11
2019-01-10T18:20:41.528Z,100135.17
2019-01-10T18:24:45.674Z,100134.43
2019-01-10T18:28:49.930Z,100132.33
2019-01-10T18:32:54.306Z,100128.75
2019-01-10T18:36:58.483Z,100134.78
2019-01-10T18:41:02.627Z,100139.14
2019-01-10T18:45:10.239Z,100145.73
2019-01-10T18:49:14.453Z,100144.75
2019-01-10T18:53:18.623Z,100151.73
2019-01-10T18:57:23.113Z,100155.13
2019-01-10T19:01:27.295Z,100161.02
2019-01-10T19:05:31.948Z,100166.22
2019-01-10T19:09:36.168Z,100165.61
2019-01-10T19:13:40.356Z,100159.13
2019-01-10T19:17:44.478Z,100159.48
2019-01-10T19:21:48.709Z,100171.02
2019-01-10T19:25:52.845Z,100170.06
2019-01-10T19:29:57.022Z,100181.25
2019-01-10T19:34:01.226Z,100186.09
2019-01-10T19:38:05.690Z,100183.15
2019-01-10T19:42:12.754Z,100190.06
2019-01-10T19:46:16.075Z,100195.59
2019-01-10T19:50:22.399Z,100192.05
2019-01-10T19:54:26.590Z,100199.91
2019-01-10T19:58:30.763Z,100204.75
2019-01-10T20:02:35.002Z,100207.27
2019-01-10T20:06:39.224Z,100211.52
2019-01-10T20:10:43.393Z,100221.33
2019-01-10T20:14:47.527Z,100227.74
2019-01-10T20:18:51.752Z,100225.56
2019-01-10T20:22:57.785Z,100226.06
2019-01-10T20:27:02.020Z,100225.42
2019-01-10T20:31:06.192Z,100224.81
2019-01-10T20:35:10.784Z,100228.55
2019-01-10T20:39:15.023Z,100227.60
2019-01-10T20:43:19.219Z,100226.16
2019-01-10T20:47:23.483Z,100226.92
2019-01-10T20:51:27.736Z,100231.88
2019-01-10T20:55:31.949Z,100235.62
2019-01-10T20:59:36.107Z,100232.34
2019-01-10T21:03:40.233Z,100245.99
2019-01-10T21:07:47.028Z,100243.51
2019-01-10T21:11:51.167Z,100239.47
2019-01-10T21:15:58.497Z,100240.19
2019-01-10T21:20:02.779Z,100243.20
2019-01-10T21:24:06.929Z,100244.66
2019-01-10T21:28:11.109Z,100238.17
2019-01-10T21:32:15.245Z,100247.59
2019-01-10T21:36:19.970Z,100256.25
2019-01-10T21:40:24.750Z,100251.14
2019-01-10T21:44:28.895Z,100259.61
2019-01-10T21:48:35.163Z,100251.29
2019-01-10T21:52:39.003Z,100259.80
2019-01-10T21:56:44.537Z,100253.05
2019-01-10T22:00:48.893Z,100262.96
2019-01-10T22:04:53.230Z,100272.22
2019-01-10T22:08:57.515Z,100265.58
2019-01-10T22:13:01.819Z,100264.47
2019-01-10T22:17:06.021Z,100261.26
2019-01-10T22:21:10.189Z,100261.98
2019-01-10T22:25:14.417Z,100263.00
2019-01-10T22:29:18.863Z,100268.44
2019-01-10T22:33:23.023Z,100270.62
2019-01-10T22:37:29.168Z,100272.25
2019-01-10T22:41:33.080Z,100275.72
2019-01-10T22:45:37.261Z,100275.72
2019-01-10T22:49:41.451Z,100278.31
2019-01-10T22:53:45.613Z,100277.52
2019-01-10T22:57:50.122Z,100274.42
2019-01-10T23:01:57.232Z,100274.34
2019-01-10T23:06:01.450Z,100275.64
2019-01-10T23:10:09.007Z,100272.33
2019-01-10T23:14:13.541Z,100277.81
2019-01-10T23:18:17.724Z,100277.17
2019-01-10T23:22:21.901Z,100287.05
2019-01-10T23:26:26.075Z,100292.73
2019-01-10T23:30:56.532Z,100288.34
2019-01-10T23:35:00.696Z,100293.53
2019-01-10T23:39:19.280Z,100295.32
2019-01-10T23:43:23.417Z,100300.09
2019-01-10T23:47:27.544Z,100306.03
2019-01-10T23:51:31.753Z,100294.28
2019-01-10T23:55:36.220Z,100299.47
2019-01-10T23:59:40.394Z,100302.05
